LIEO/OLB METAR and TAF weather

Enter ICAO airport designator
Station Type Date Time Source
LIEO METAR 2019/04/23 03:50 UTC NOAA

LIEO 230350Z VRB01KT 0200 R05/0450N R23/0450N FG FEW003 SCT010 13/13 Q0999


Station Type Date Time Source
LIEO Decoded METAR 2019/04/23 03:50 UTC NOAA

Olbia / Costa Smeralda, Italy (LIEO) 40-54N 009-31E 13M
Apr 22, 2019 - 11:50 PM EDT / 2019.04.23 0350 UTC
Wind: Variable at 1 MPH (1 KT):0
Visibility: less than 1 mile:0
Sky conditions: partly cloudy
Weather: fog
Temperature: 55 F (13 C)
Dew Point: 55 F (13 C)
Relative Humidity: 100%
Pressure (altimeter): 29.50 in. Hg (0999 hPa)
ob: LIEO 230350Z VRB01KT 0200 R05/0450N R23/0450N FG FEW003 SCT010 13/13 Q0999
cycle: 4

Station Type Date Time Source
LIEO TAF 2019/04/22 18:21 UTC NOAA

TAF LIEO 221700Z 2218/2318 08015G25KT 9999 SCT030
BECMG 2218/2220 VRB05KT
BECMG 2304/2306 22012KT
TEMPO 2308/2315 4000 SHRA

Example: see airport list